sensor_id;sensor_type;location;lat;lon;timestamp;P1;durP1;ratioP1;P2;durP2;ratioP2
29202;SDS011;16245;51.170;4.884;2022-07-09T00:00:00;2.80;;;2.60;;
29202;SDS011;16245;51.170;4.884;2022-07-09T00:02:26;3.85;;;3.22;;
29202;SDS011;16245;51.170;4.884;2022-07-09T00:04:51;5.18;;;3.08;;
29202;SDS011;16245;51.170;4.884;2022-07-09T00:07:17;2.78;;;2.53;;
29202;SDS011;16245;51.170;4.884;2022-07-09T00:09:43;2.88;;;2.50;;
29202;SDS011;16245;51.170;4.884;2022-07-09T00:12:08;3.47;;;3.03;;
29202;SDS011;16245;51.170;4.884;2022-07-09T00:14:34;3.45;;;2.88;;
29202;SDS011;16245;51.170;4.884;2022-07-09T00:17:00;4.40;;;2.28;;
29202;SDS011;16245;51.170;4.884;2022-07-09T00:19:26;2.53;;;2.25;;
29202;SDS011;16245;51.170;4.884;2022-07-09T00:21:51;4.50;;;3.10;;
29202;SDS011;16245;51.170;4.884;2022-07-09T00:24:17;3.45;;;2.78;;
29202;SDS011;16245;51.170;4.884;2022-07-09T00:26:43;3.30;;;3.00;;
29202;SDS011;16245;51.170;4.884;2022-07-09T00:29:09;4.05;;;3.65;;
29202;SDS011;16245;51.170;4.884;2022-07-09T00:31:34;4.10;;;2.85;;
29202;SDS011;16245;51.170;4.884;2022-07-09T00:34:00;4.38;;;3.20;;
29202;SDS011;16245;51.170;4.884;2022-07-09T00:36:26;3.90;;;2.42;;
29202;SDS011;16245;51.170;4.884;2022-07-09T00:38:51;3.10;;;2.53;;
29202;SDS011;16245;51.170;4.884;2022-07-09T00:41:17;5.97;;;2.78;;
29202;SDS011;16245;51.170;4.884;2022-07-09T00:43:46;3.35;;;3.00;;
29202;SDS011;16245;51.170;4.884;2022-07-09T00:46:16;4.47;;;2.85;;
29202;SDS011;16245;51.170;4.884;2022-07-09T00:48:42;3.88;;;3.33;;
29202;SDS011;16245;51.170;4.884;2022-07-09T00:51:08;3.22;;;2.72;;
29202;SDS011;16245;51.170;4.884;2022-07-09T00:53:36;3.78;;;3.20;;
29202;SDS011;16245;51.170;4.884;2022-07-09T00:56:02;2.97;;;2.63;;
29202;SDS011;16245;51.170;4.884;2022-07-09T00:58:29;4.07;;;2.92;;
29202;SDS011;16245;51.170;4.884;2022-07-09T01:00:55;5.45;;;3.60;;
29202;SDS011;16245;51.170;4.884;2022-07-09T01:03:21;4.13;;;3.08;;
29202;SDS011;16245;51.170;4.884;2022-07-09T01:05:48;3.47;;;2.95;;
29202;SDS011;16245;51.170;4.884;2022-07-09T01:08:14;5.00;;;3.30;;
29202;SDS011;16245;51.170;4.884;2022-07-09T01:10:40;5.65;;;3.20;;
29202;SDS011;16245;51.170;4.884;2022-07-09T01:13:06;3.90;;;3.08;;
29202;SDS011;16245;51.170;4.884;2022-07-09T01:15:33;4.40;;;3.22;;
29202;SDS011;16245;51.170;4.884;2022-07-09T01:17:59;5.72;;;3.60;;
29202;SDS011;16245;51.170;4.884;2022-07-09T01:20:28;4.53;;;3.47;;
29202;SDS011;16245;51.170;4.884;2022-07-09T01:22:54;6.40;;;3.58;;
29202;SDS011;16245;51.170;4.884;2022-07-09T01:25:20;3.75;;;3.15;;
29202;SDS011;16245;51.170;4.884;2022-07-09T01:27:56;5.28;;;3.17;;
29202;SDS011;16245;51.170;4.884;2022-07-09T01:30:25;4.28;;;3.88;;
29202;SDS011;16245;51.170;4.884;2022-07-09T01:32:52;4.55;;;3.55;;
29202;SDS011;16245;51.170;4.884;2022-07-09T01:35:19;4.25;;;3.53;;
29202;SDS011;16245;51.170;4.884;2022-07-09T01:37:45;4.30;;;3.75;;
29202;SDS011;16245;51.170;4.884;2022-07-09T01:40:11;4.30;;;3.58;;
29202;SDS011;16245;51.170;4.884;2022-07-09T01:42:37;5.45;;;3.72;;
29202;SDS011;16245;51.170;4.884;2022-07-09T01:45:03;7.97;;;4.05;;
29202;SDS011;16245;51.170;4.884;2022-07-09T01:47:29;3.80;;;3.47;;
29202;SDS011;16245;51.170;4.884;2022-07-09T01:49:55;4.38;;;3.97;;
29202;SDS011;16245;51.170;4.884;2022-07-09T01:52:20;4.90;;;3.42;;
29202;SDS011;16245;51.170;4.884;2022-07-09T01:54:46;4.53;;;4.10;;
29202;SDS011;16245;51.170;4.884;2022-07-09T01:57:11;5.00;;;4.13;;
29202;SDS011;16245;51.170;4.884;2022-07-09T01:59:37;5.30;;;4.13;;
29202;SDS011;16245;51.170;4.884;2022-07-09T02:02:03;3.97;;;3.65;;
29202;SDS011;16245;51.170;4.884;2022-07-09T02:04:30;4.75;;;3.63;;
29202;SDS011;16245;51.170;4.884;2022-07-09T02:06:56;4.68;;;4.15;;
29202;SDS011;16245;51.170;4.884;2022-07-09T02:09:21;6.07;;;3.85;;
29202;SDS011;16245;51.170;4.884;2022-07-09T02:11:47;4.65;;;4.13;;
29202;SDS011;16245;51.170;4.884;2022-07-09T02:14:13;5.32;;;4.00;;
29202;SDS011;16245;51.170;4.884;2022-07-09T02:16:39;3.85;;;3.45;;
29202;SDS011;16245;51.170;4.884;2022-07-09T02:19:05;4.03;;;3.65;;
29202;SDS011;16245;51.170;4.884;2022-07-09T02:21:31;4.47;;;3.80;;
29202;SDS011;16245;51.170;4.884;2022-07-09T02:23:57;4.18;;;3.80;;
29202;SDS011;16245;51.170;4.884;2022-07-09T02:26:27;4.40;;;4.00;;
29202;SDS011;16245;51.170;4.884;2022-07-09T02:28:54;7.10;;;4.03;;
29202;SDS011;16245;51.170;4.884;2022-07-09T02:31:20;8.25;;;4.00;;
29202;SDS011;16245;51.170;4.884;2022-07-09T02:33:46;6.85;;;5.45;;
29202;SDS011;16245;51.170;4.884;2022-07-09T02:36:12;4.32;;;3.92;;
29202;SDS011;16245;51.170;4.884;2022-07-09T02:38:37;4.45;;;4.03;;
29202;SDS011;16245;51.170;4.884;2022-07-09T02:41:04;5.43;;;4.13;;
29202;SDS011;16245;51.170;4.884;2022-07-09T02:43:30;4.65;;;4.18;;
29202;SDS011;16245;51.170;4.884;2022-07-09T02:45:55;6.57;;;4.32;;
29202;SDS011;16245;51.170;4.884;2022-07-09T02:48:21;4.55;;;4.15;;
29202;SDS011;16245;51.170;4.884;2022-07-09T02:50:48;4.95;;;4.55;;
29202;SDS011;16245;51.170;4.884;2022-07-09T02:53:14;5.78;;;4.80;;
29202;SDS011;16245;51.170;4.884;2022-07-09T02:55:40;7.85;;;4.97;;
29202;SDS011;16245;51.170;4.884;2022-07-09T02:58:06;6.85;;;4.93;;
29202;SDS011;16245;51.170;4.884;2022-07-09T03:00:31;4.70;;;4.28;;
29202;SDS011;16245;51.170;4.884;2022-07-09T03:02:57;5.05;;;4.55;;
29202;SDS011;16245;51.170;4.884;2022-07-09T03:05:23;6.65;;;4.40;;
29202;SDS011;16245;51.170;4.884;2022-07-09T03:07:48;5.97;;;4.72;;
29202;SDS011;16245;51.170;4.884;2022-07-09T03:10:14;4.88;;;4.38;;
29202;SDS011;16245;51.170;4.884;2022-07-09T03:12:40;4.47;;;4.07;;
29202;SDS011;16245;51.170;4.884;2022-07-09T03:15:07;5.68;;;4.45;;
29202;SDS011;16245;51.170;4.884;2022-07-09T03:17:33;5.75;;;4.78;;
29202;SDS011;16245;51.170;4.884;2022-07-09T03:19:59;6.50;;;4.95;;
29202;SDS011;16245;51.170;4.884;2022-07-09T03:22:25;6.43;;;5.15;;
29202;SDS011;16245;51.170;4.884;2022-07-09T03:24:51;7.93;;;5.30;;
29202;SDS011;16245;51.170;4.884;2022-07-09T03:27:16;6.45;;;5.85;;
29202;SDS011;16245;51.170;4.884;2022-07-09T03:29:42;6.72;;;6.13;;
29202;SDS011;16245;51.170;4.884;2022-07-09T03:32:08;8.25;;;5.95;;
29202;SDS011;16245;51.170;4.884;2022-07-09T03:34:33;8.57;;;6.57;;
29202;SDS011;16245;51.170;4.884;2022-07-09T03:36:59;7.63;;;5.00;;
29202;SDS011;16245;51.170;4.884;2022-07-09T03:39:25;7.90;;;5.25;;
29202;SDS011;16245;51.170;4.884;2022-07-09T03:41:51;5.47;;;4.97;;
29202;SDS011;16245;51.170;4.884;2022-07-09T03:44:16;8.57;;;5.60;;
29202;SDS011;16245;51.170;4.884;2022-07-09T03:46:42;6.60;;;4.75;;
29202;SDS011;16245;51.170;4.884;2022-07-09T03:49:08;5.72;;;5.20;;
29202;SDS011;16245;51.170;4.884;2022-07-09T03:51:34;6.65;;;5.15;;
29202;SDS011;16245;51.170;4.884;2022-07-09T03:54:00;9.50;;;6.25;;
29202;SDS011;16245;51.170;4.884;2022-07-09T03:56:26;7.65;;;5.55;;
29202;SDS011;16245;51.170;4.884;2022-07-09T03:58:51;6.28;;;5.68;;
29202;SDS011;16245;51.170;4.884;2022-07-09T04:01:17;12.55;;;10.38;;
29202;SDS011;16245;51.170;4.884;2022-07-09T04:03:43;7.85;;;6.40;;
29202;SDS011;16245;51.170;4.884;2022-07-09T04:06:08;6.60;;;5.53;;
29202;SDS011;16245;51.170;4.884;2022-07-09T04:08:34;7.90;;;5.70;;
29202;SDS011;16245;51.170;4.884;2022-07-09T04:11:00;7.25;;;6.55;;
29202;SDS011;16245;51.170;4.884;2022-07-09T04:13:26;8.30;;;6.80;;
29202;SDS011;16245;51.170;4.884;2022-07-09T04:15:52;10.27;;;9.27;;
29202;SDS011;16245;51.170;4.884;2022-07-09T04:18:17;12.95;;;10.55;;
29202;SDS011;16245;51.170;4.884;2022-07-09T04:20:43;13.90;;;12.02;;
29202;SDS011;16245;51.170;4.884;2022-07-09T04:23:09;10.45;;;9.27;;
29202;SDS011;16245;51.170;4.884;2022-07-09T04:25:34;14.48;;;10.55;;
29202;SDS011;16245;51.170;4.884;2022-07-09T04:28:00;13.77;;;11.68;;
29202;SDS011;16245;51.170;4.884;2022-07-09T04:30:26;12.13;;;10.23;;
29202;SDS011;16245;51.170;4.884;2022-07-09T04:32:52;14.38;;;12.52;;
29202;SDS011;16245;51.170;4.884;2022-07-09T04:35:18;14.40;;;11.98;;
29202;SDS011;16245;51.170;4.884;2022-07-09T04:37:44;12.80;;;10.90;;
29202;SDS011;16245;51.170;4.884;2022-07-09T04:40:09;17.75;;;15.90;;
29202;SDS011;16245;51.170;4.884;2022-07-09T04:42:36;19.10;;;16.23;;
29202;SDS011;16245;51.170;4.884;2022-07-09T04:45:02;15.77;;;13.98;;
29202;SDS011;16245;51.170;4.884;2022-07-09T04:47:28;19.27;;;17.30;;
29202;SDS011;16245;51.170;4.884;2022-07-09T04:49:53;21.85;;;17.17;;
29202;SDS011;16245;51.170;4.884;2022-07-09T04:52:19;15.80;;;12.60;;
29202;SDS011;16245;51.170;4.884;2022-07-09T04:54:45;21.50;;;19.20;;
29202;SDS011;16245;51.170;4.884;2022-07-09T04:57:12;24.17;;;19.42;;
29202;SDS011;16245;51.170;4.884;2022-07-09T04:59:38;22.23;;;16.75;;
29202;SDS011;16245;51.170;4.884;2022-07-09T05:02:04;22.40;;;18.33;;
29202;SDS011;16245;51.170;4.884;2022-07-09T05:04:30;20.88;;;17.38;;
29202;SDS011;16245;51.170;4.884;2022-07-09T05:06:55;22.02;;;19.33;;
29202;SDS011;16245;51.170;4.884;2022-07-09T05:09:22;22.13;;;19.48;;
29202;SDS011;16245;51.170;4.884;2022-07-09T05:11:47;25.75;;;19.77;;
29202;SDS011;16245;51.170;4.884;2022-07-09T05:14:13;25.90;;;20.35;;
29202;SDS011;16245;51.170;4.884;2022-07-09T05:16:39;26.23;;;22.20;;
29202;SDS011;16245;51.170;4.884;2022-07-09T05:19:09;28.75;;;20.85;;
29202;SDS011;16245;51.170;4.884;2022-07-09T05:21:41;28.85;;;22.25;;
29202;SDS011;16245;51.170;4.884;2022-07-09T05:24:07;31.38;;;24.00;;
29202;SDS011;16245;51.170;4.884;2022-07-09T05:26:33;27.08;;;23.23;;
29202;SDS011;16245;51.170;4.884;2022-07-09T05:29:00;29.25;;;24.35;;
29202;SDS011;16245;51.170;4.884;2022-07-09T05:31:27;30.52;;;24.02;;
29202;SDS011;16245;51.170;4.884;2022-07-09T05:33:52;30.58;;;23.98;;
29202;SDS011;16245;51.170;4.884;2022-07-09T05:36:18;31.30;;;25.20;;
29202;SDS011;16245;51.170;4.884;2022-07-09T05:38:44;25.17;;;20.42;;
29202;SDS011;16245;51.170;4.884;2022-07-09T05:41:12;26.35;;;23.33;;
29202;SDS011;16245;51.170;4.884;2022-07-09T05:43:39;28.40;;;25.60;;
29202;SDS011;16245;51.170;4.884;2022-07-09T05:46:05;28.77;;;25.25;;
29202;SDS011;16245;51.170;4.884;2022-07-09T05:48:30;27.13;;;24.23;;
29202;SDS011;16245;51.170;4.884;2022-07-09T05:50:56;28.05;;;24.88;;
29202;SDS011;16245;51.170;4.884;2022-07-09T05:53:22;33.33;;;26.90;;
29202;SDS011;16245;51.170;4.884;2022-07-09T05:55:47;29.75;;;26.20;;
29202;SDS011;16245;51.170;4.884;2022-07-09T05:58:15;34.83;;;26.30;;
29202;SDS011;16245;51.170;4.884;2022-07-09T06:00:41;32.17;;;27.35;;
29202;SDS011;16245;51.170;4.884;2022-07-09T06:03:06;28.73;;;25.45;;
29202;SDS011;16245;51.170;4.884;2022-07-09T06:05:32;32.33;;;27.83;;
29202;SDS011;16245;51.170;4.884;2022-07-09T06:07:58;31.08;;;26.30;;
29202;SDS011;16245;51.170;4.884;2022-07-09T06:10:23;33.50;;;26.02;;
29202;SDS011;16245;51.170;4.884;2022-07-09T06:12:49;30.05;;;24.30;;
29202;SDS011;16245;51.170;4.884;2022-07-09T06:15:15;29.33;;;23.77;;
29202;SDS011;16245;51.170;4.884;2022-07-09T06:17:41;26.67;;;23.08;;
29202;SDS011;16245;51.170;4.884;2022-07-09T06:20:06;28.80;;;22.20;;
29202;SDS011;16245;51.170;4.884;2022-07-09T06:22:32;24.73;;;21.65;;
29202;SDS011;16245;51.170;4.884;2022-07-09T06:24:58;26.00;;;22.20;;
29202;SDS011;16245;51.170;4.884;2022-07-09T06:27:24;23.10;;;18.98;;
29202;SDS011;16245;51.170;4.884;2022-07-09T06:29:50;22.27;;;17.80;;
29202;SDS011;16245;51.170;4.884;2022-07-09T06:32:15;21.48;;;17.20;;
29202;SDS011;16245;51.170;4.884;2022-07-09T06:34:41;21.27;;;18.25;;
29202;SDS011;16245;51.170;4.884;2022-07-09T06:37:07;18.40;;;16.27;;
29202;SDS011;16245;51.170;4.884;2022-07-09T06:39:33;20.88;;;18.52;;
29202;SDS011;16245;51.170;4.884;2022-07-09T06:42:11;23.08;;;17.70;;
29202;SDS011;16245;51.170;4.884;2022-07-09T06:44:38;17.88;;;16.02;;
29202;SDS011;16245;51.170;4.884;2022-07-09T06:47:05;20.00;;;16.20;;
29202;SDS011;16245;51.170;4.884;2022-07-09T06:49:31;18.58;;;16.60;;
29202;SDS011;16245;51.170;4.884;2022-07-09T06:51:57;19.23;;;16.38;;
29202;SDS011;16245;51.170;4.884;2022-07-09T06:54:23;15.60;;;14.00;;
29202;SDS011;16245;51.170;4.884;2022-07-09T06:56:48;18.48;;;14.20;;
29202;SDS011;16245;51.170;4.884;2022-07-09T06:59:14;16.17;;;14.55;;
29202;SDS011;16245;51.170;4.884;2022-07-09T07:01:41;18.48;;;14.68;;
29202;SDS011;16245;51.170;4.884;2022-07-09T07:04:06;14.52;;;11.90;;
29202;SDS011;16245;51.170;4.884;2022-07-09T07:06:32;20.02;;;15.20;;
29202;SDS011;16245;51.170;4.884;2022-07-09T07:08:58;17.33;;;13.57;;
29202;SDS011;16245;51.170;4.884;2022-07-09T07:11:24;14.35;;;12.90;;
29202;SDS011;16245;51.170;4.884;2022-07-09T07:13:50;14.32;;;12.82;;
29202;SDS011;16245;51.170;4.884;2022-07-09T07:16:15;16.00;;;12.68;;
29202;SDS011;16245;51.170;4.884;2022-07-09T07:18:42;18.48;;;14.73;;
29202;SDS011;16245;51.170;4.884;2022-07-09T07:21:07;14.98;;;13.40;;
29202;SDS011;16245;51.170;4.884;2022-07-09T07:23:33;17.38;;;11.77;;
29202;SDS011;16245;51.170;4.884;2022-07-09T07:25:59;18.95;;;15.63;;
29202;SDS011;16245;51.170;4.884;2022-07-09T07:28:25;14.88;;;13.38;;
29202;SDS011;16245;51.170;4.884;2022-07-09T07:30:51;16.15;;;12.25;;
29202;SDS011;16245;51.170;4.884;2022-07-09T07:33:17;11.43;;;10.23;;
29202;SDS011;16245;51.170;4.884;2022-07-09T07:35:46;13.88;;;12.48;;
29202;SDS011;16245;51.170;4.884;2022-07-09T07:38:12;15.82;;;11.18;;
29202;SDS011;16245;51.170;4.884;2022-07-09T07:40:37;15.25;;;11.20;;
29202;SDS011;16245;51.170;4.884;2022-07-09T07:43:03;22.92;;;12.85;;
29202;SDS011;16245;51.170;4.884;2022-07-09T07:45:29;14.35;;;11.30;;
29202;SDS011;16245;51.170;4.884;2022-07-09T07:47:55;15.38;;;9.27;;
29202;SDS011;16245;51.170;4.884;2022-07-09T07:50:21;16.35;;;12.35;;
29202;SDS011;16245;51.170;4.884;2022-07-09T07:52:48;11.68;;;10.38;;
29202;SDS011;16245;51.170;4.884;2022-07-09T07:55:14;10.30;;;8.73;;
29202;SDS011;16245;51.170;4.884;2022-07-09T07:57:40;16.00;;;10.27;;
29202;SDS011;16245;51.170;4.884;2022-07-09T08:00:06;14.10;;;9.80;;
29202;SDS011;16245;51.170;4.884;2022-07-09T08:02:32;16.85;;;11.98;;
29202;SDS011;16245;51.170;4.884;2022-07-09T08:04:59;11.88;;;10.65;;
29202;SDS011;16245;51.170;4.884;2022-07-09T08:07:25;12.77;;;10.70;;
29202;SDS011;16245;51.170;4.884;2022-07-09T08:09:51;13.07;;;11.43;;
29202;SDS011;16245;51.170;4.884;2022-07-09T08:12:17;12.55;;;9.90;;
29202;SDS011;16245;51.170;4.884;2022-07-09T08:14:42;15.55;;;13.15;;
29202;SDS011;16245;51.170;4.884;2022-07-09T08:17:08;14.82;;;12.52;;
29202;SDS011;16245;51.170;4.884;2022-07-09T08:19:34;16.42;;;13.18;;
29202;SDS011;16245;51.170;4.884;2022-07-09T08:21:59;16.92;;;12.23;;
29202;SDS011;16245;51.170;4.884;2022-07-09T08:24:25;15.65;;;13.15;;
29202;SDS011;16245;51.170;4.884;2022-07-09T08:26:52;14.07;;;11.93;;
29202;SDS011;16245;51.170;4.884;2022-07-09T08:29:17;18.02;;;14.43;;
29202;SDS011;16245;51.170;4.884;2022-07-09T08:31:43;16.92;;;13.07;;
29202;SDS011;16245;51.170;4.884;2022-07-09T08:34:09;17.13;;;15.10;;
29202;SDS011;16245;51.170;4.884;2022-07-09T08:36:35;17.27;;;13.32;;
29202;SDS011;16245;51.170;4.884;2022-07-09T08:39:00;16.85;;;15.05;;
29202;SDS011;16245;51.170;4.884;2022-07-09T08:41:26;19.73;;;15.98;;
29202;SDS011;16245;51.170;4.884;2022-07-09T08:43:52;16.70;;;14.38;;
29202;SDS011;16245;51.170;4.884;2022-07-09T08:46:19;19.90;;;15.25;;
29202;SDS011;16245;51.170;4.884;2022-07-09T08:48:45;18.98;;;15.50;;
29202;SDS011;16245;51.170;4.884;2022-07-09T08:51:11;17.77;;;15.25;;
29202;SDS011;16245;51.170;4.884;2022-07-09T08:53:41;17.30;;;14.25;;
29202;SDS011;16245;51.170;4.884;2022-07-09T08:56:08;17.75;;;15.00;;
29202;SDS011;16245;51.170;4.884;2022-07-09T08:58:34;23.02;;;13.95;;
29202;SDS011;16245;51.170;4.884;2022-07-09T09:01:00;18.95;;;16.42;;
29202;SDS011;16245;51.170;4.884;2022-07-09T09:03:26;18.13;;;12.07;;
29202;SDS011;16245;51.170;4.884;2022-07-09T09:06:07;13.75;;;11.55;;
29202;SDS011;16245;51.170;4.884;2022-07-09T09:08:36;15.32;;;10.98;;
29202;SDS011;16245;51.170;4.884;2022-07-09T09:11:02;15.75;;;12.52;;
29202;SDS011;16245;51.170;4.884;2022-07-09T09:13:29;22.90;;;14.65;;
29202;SDS011;16245;51.170;4.884;2022-07-09T09:18:48;16.98;;;12.32;;
29202;SDS011;16245;51.170;4.884;2022-07-09T09:21:15;16.30;;;11.55;;
29202;SDS011;16245;51.170;4.884;2022-07-09T09:23:45;22.25;;;15.00;;
29202;SDS011;16245;51.170;4.884;2022-07-09T09:28:48;15.80;;;11.80;;
29202;SDS011;16245;51.170;4.884;2022-07-09T09:33:51;17.35;;;15.13;;
29202;SDS011;16245;51.170;4.884;2022-07-09T09:36:40;17.17;;;12.80;;
29202;SDS011;16245;51.170;4.884;2022-07-09T09:39:07;18.35;;;14.65;;
29202;SDS011;16245;51.170;4.884;2022-07-09T09:41:38;19.33;;;16.98;;
29202;SDS011;16245;51.170;4.884;2022-07-09T09:44:05;18.63;;;16.75;;
29202;SDS011;16245;51.170;4.884;2022-07-09T09:46:35;18.85;;;16.85;;
29202;SDS011;16245;51.170;4.884;2022-07-09T09:49:02;21.10;;;19.00;;
29202;SDS011;16245;51.170;4.884;2022-07-09T09:51:42;19.08;;;17.17;;
29202;SDS011;16245;51.170;4.884;2022-07-09T09:54:09;16.63;;;13.95;;
29202;SDS011;16245;51.170;4.884;2022-07-09T09:56:36;18.63;;;16.55;;
29202;SDS011;16245;51.170;4.884;2022-07-09T09:59:04;21.67;;;18.80;;
29202;SDS011;16245;51.170;4.884;2022-07-09T10:01:30;21.38;;;18.50;;
29202;SDS011;16245;51.170;4.884;2022-07-09T10:03:57;23.85;;;21.10;;
29202;SDS011;16245;51.170;4.884;2022-07-09T10:06:23;19.92;;;17.40;;
29202;SDS011;16245;51.170;4.884;2022-07-09T10:08:50;22.60;;;14.98;;
29202;SDS011;16245;51.170;4.884;2022-07-09T10:11:16;19.45;;;15.15;;
29202;SDS011;16245;51.170;4.884;2022-07-09T10:16:37;12.98;;;11.38;;
29202;SDS011;16245;51.170;4.884;2022-07-09T10:19:03;16.38;;;14.57;;
29202;SDS011;16245;51.170;4.884;2022-07-09T10:21:39;13.73;;;12.40;;
29202;SDS011;16245;51.170;4.884;2022-07-09T10:24:08;14.95;;;13.10;;
29202;SDS011;16245;51.170;4.884;2022-07-09T10:26:44;13.57;;;11.93;;
29202;SDS011;16245;51.170;4.884;2022-07-09T10:29:20;16.95;;;11.60;;
29202;SDS011;16245;51.170;4.884;2022-07-09T10:31:46;13.13;;;11.20;;
29202;SDS011;16245;51.170;4.884;2022-07-09T10:34:16;11.60;;;10.38;;
29202;SDS011;16245;51.170;4.884;2022-07-09T10:36:57;19.70;;;11.10;;
29202;SDS011;16245;51.170;4.884;2022-07-09T10:39:27;10.82;;;9.60;;
29202;SDS011;16245;51.170;4.884;2022-07-09T10:42:07;12.80;;;11.50;;
29202;SDS011;16245;51.170;4.884;2022-07-09T10:44:46;13.38;;;10.55;;
29202;SDS011;16245;51.170;4.884;2022-07-09T10:47:14;13.27;;;9.88;;
29202;SDS011;16245;51.170;4.884;2022-07-09T10:49:40;12.40;;;9.02;;
29202;SDS011;16245;51.170;4.884;2022-07-09T10:52:06;9.75;;;8.75;;
29202;SDS011;16245;51.170;4.884;2022-07-09T10:54:33;15.50;;;11.13;;
29202;SDS011;16245;51.170;4.884;2022-07-09T10:56:59;12.57;;;10.18;;
29202;SDS011;16245;51.170;4.884;2022-07-09T10:59:28;11.45;;;10.30;;
29202;SDS011;16245;51.170;4.884;2022-07-09T11:01:54;12.00;;;10.30;;
29202;SDS011;16245;51.170;4.884;2022-07-09T11:04:27;12.48;;;9.60;;
29202;SDS011;16245;51.170;4.884;2022-07-09T11:06:53;10.85;;;9.73;;
29202;SDS011;16245;51.170;4.884;2022-07-09T11:09:20;8.85;;;6.55;;
29202;SDS011;16245;51.170;4.884;2022-07-09T11:11:46;11.88;;;6.10;;
29202;SDS011;16245;51.170;4.884;2022-07-09T11:14:21;13.20;;;4.50;;
29202;SDS011;16245;51.170;4.884;2022-07-09T11:16:57;4.88;;;3.85;;
29202;SDS011;16245;51.170;4.884;2022-07-09T11:19:24;5.18;;;3.63;;
29202;SDS011;16245;51.170;4.884;2022-07-09T11:21:49;3.10;;;2.80;;
29202;SDS011;16245;51.170;4.884;2022-07-09T11:24:25;5.38;;;3.22;;
29202;SDS011;16245;51.170;4.884;2022-07-09T11:26:54;5.10;;;2.75;;
29202;SDS011;16245;51.170;4.884;2022-07-09T11:29:20;3.75;;;2.78;;
29202;SDS011;16245;51.170;4.884;2022-07-09T11:31:47;3.28;;;2.33;;
29202;SDS011;16245;51.170;4.884;2022-07-09T11:34:16;4.80;;;2.65;;
29202;SDS011;16245;51.170;4.884;2022-07-09T11:36:43;4.57;;;2.10;;
29202;SDS011;16245;51.170;4.884;2022-07-09T11:39:27;3.90;;;2.22;;
29202;SDS011;16245;51.170;4.884;2022-07-09T11:41:59;2.25;;;1.67;;
29202;SDS011;16245;51.170;4.884;2022-07-09T11:44:27;4.90;;;1.80;;
29202;SDS011;16245;51.170;4.884;2022-07-09T11:49:42;3.45;;;1.67;;
29202;SDS011;16245;51.170;4.884;2022-07-09T11:52:18;2.13;;;1.20;;
29202;SDS011;16245;51.170;4.884;2022-07-09T11:55:00;2.20;;;0.98;;
29202;SDS011;16245;51.170;4.884;2022-07-09T11:57:28;1.85;;;1.20;;
29202;SDS011;16245;51.170;4.884;2022-07-09T12:00:04;3.40;;;1.10;;
29202;SDS011;16245;51.170;4.884;2022-07-09T12:02:33;3.42;;;1.15;;
29202;SDS011;16245;51.170;4.884;2022-07-09T12:05:01;1.30;;;1.20;;
29202;SDS011;16245;51.170;4.884;2022-07-09T12:07:34;1.35;;;1.17;;
29202;SDS011;16245;51.170;4.884;2022-07-09T12:10:07;0.98;;;0.98;;
29202;SDS011;16245;51.170;4.884;2022-07-09T12:12:35;3.20;;;1.10;;
29202;SDS011;16245;51.170;4.884;2022-07-09T12:15:02;3.33;;;1.05;;
29202;SDS011;16245;51.170;4.884;2022-07-09T12:17:30;2.47;;;1.10;;
29202;SDS011;16245;51.170;4.884;2022-07-09T12:20:15;4.18;;;1.20;;
29202;SDS011;16245;51.170;4.884;2022-07-09T12:22:40;1.52;;;1.00;;
29202;SDS011;16245;51.170;4.884;2022-07-09T12:25:07;2.83;;;1.02;;
29202;SDS011;16245;51.170;4.884;2022-07-09T12:27:36;1.33;;;1.00;;
29202;SDS011;16245;51.170;4.884;2022-07-09T12:30:02;2.25;;;1.48;;
29202;SDS011;16245;51.170;4.884;2022-07-09T12:32:27;3.17;;;2.00;;
29202;SDS011;16245;51.170;4.884;2022-07-09T12:34:53;3.30;;;1.40;;
29202;SDS011;16245;51.170;4.884;2022-07-09T12:37:19;2.50;;;0.98;;
29202;SDS011;16245;51.170;4.884;2022-07-09T12:39:44;3.55;;;1.52;;
29202;SDS011;16245;51.170;4.884;2022-07-09T12:42:10;2.42;;;1.20;;
29202;SDS011;16245;51.170;4.884;2022-07-09T12:44:36;2.33;;;1.50;;
29202;SDS011;16245;51.170;4.884;2022-07-09T12:47:02;2.53;;;1.38;;
29202;SDS011;16245;51.170;4.884;2022-07-09T12:49:28;4.65;;;1.30;;
29202;SDS011;16245;51.170;4.884;2022-07-09T12:51:53;1.75;;;1.42;;
29202;SDS011;16245;51.170;4.884;2022-07-09T12:54:19;2.42;;;1.10;;
29202;SDS011;16245;51.170;4.884;2022-07-09T12:56:48;4.10;;;1.38;;
29202;SDS011;16245;51.170;4.884;2022-07-09T12:59:16;2.78;;;0.88;;
29202;SDS011;16245;51.170;4.884;2022-07-09T13:01:42;1.65;;;1.02;;
29202;SDS011;16245;51.170;4.884;2022-07-09T13:04:09;4.35;;;1.30;;
29202;SDS011;16245;51.170;4.884;2022-07-09T13:06:35;1.27;;;1.00;;
29202;SDS011;16245;51.170;4.884;2022-07-09T13:09:02;2.03;;;0.90;;
29202;SDS011;16245;51.170;4.884;2022-07-09T13:11:32;3.17;;;1.40;;
29202;SDS011;16245;51.170;4.884;2022-07-09T13:13:58;2.38;;;1.00;;
29202;SDS011;16245;51.170;4.884;2022-07-09T13:16:24;2.80;;;1.00;;
29202;SDS011;16245;51.170;4.884;2022-07-09T13:18:50;2.53;;;1.05;;
29202;SDS011;16245;51.170;4.884;2022-07-09T13:21:17;2.65;;;1.00;;
29202;SDS011;16245;51.170;4.884;2022-07-09T13:23:43;2.28;;;0.90;;
29202;SDS011;16245;51.170;4.884;2022-07-09T13:26:09;1.80;;;1.20;;
29202;SDS011;16245;51.170;4.884;2022-07-09T13:28:35;1.25;;;1.02;;
29202;SDS011;16245;51.170;4.884;2022-07-09T13:31:01;3.53;;;0.82;;
29202;SDS011;16245;51.170;4.884;2022-07-09T13:33:26;0.80;;;0.80;;
29202;SDS011;16245;51.170;4.884;2022-07-09T13:35:52;1.67;;;1.00;;
29202;SDS011;16245;51.170;4.884;2022-07-09T13:38:18;3.10;;;0.85;;
29202;SDS011;16245;51.170;4.884;2022-07-09T13:40:45;2.78;;;0.80;;
29202;SDS011;16245;51.170;4.884;2022-07-09T13:43:10;1.25;;;0.93;;
29202;SDS011;16245;51.170;4.884;2022-07-09T13:45:36;5.55;;;1.17;;
29202;SDS011;16245;51.170;4.884;2022-07-09T13:48:02;1.65;;;0.90;;
29202;SDS011;16245;51.170;4.884;2022-07-09T13:50:27;3.05;;;0.90;;
29202;SDS011;16245;51.170;4.884;2022-07-09T13:52:53;2.38;;;0.93;;
29202;SDS011;16245;51.170;4.884;2022-07-09T13:55:19;1.30;;;0.98;;
29202;SDS011;16245;51.170;4.884;2022-07-09T13:57:44;2.10;;;0.93;;
29202;SDS011;16245;51.170;4.884;2022-07-09T14:00:10;3.25;;;1.00;;
29202;SDS011;16245;51.170;4.884;2022-07-09T14:02:36;1.90;;;0.93;;
29202;SDS011;16245;51.170;4.884;2022-07-09T14:05:02;6.13;;;1.33;;
29202;SDS011;16245;51.170;4.884;2022-07-09T14:07:29;3.63;;;1.83;;
29202;SDS011;16245;51.170;4.884;2022-07-09T14:09:55;6.85;;;1.40;;
29202;SDS011;16245;51.170;4.884;2022-07-09T14:12:21;3.13;;;1.27;;
29202;SDS011;16245;51.170;4.884;2022-07-09T14:14:49;3.17;;;1.02;;
29202;SDS011;16245;51.170;4.884;2022-07-09T14:17:16;4.07;;;1.55;;
29202;SDS011;16245;51.170;4.884;2022-07-09T14:19:42;7.82;;;1.58;;
29202;SDS011;16245;51.170;4.884;2022-07-09T14:22:08;5.45;;;1.50;;
29202;SDS011;16245;51.170;4.884;2022-07-09T14:24:34;3.85;;;1.13;;
29202;SDS011;16245;51.170;4.884;2022-07-09T14:27:00;1.90;;;0.85;;
29202;SDS011;16245;51.170;4.884;2022-07-09T14:29:26;3.05;;;0.93;;
29202;SDS011;16245;51.170;4.884;2022-07-09T14:31:52;3.72;;;1.30;;
29202;SDS011;16245;51.170;4.884;2022-07-09T14:34:18;1.73;;;1.20;;
29202;SDS011;16245;51.170;4.884;2022-07-09T14:36:44;5.13;;;1.10;;
29202;SDS011;16245;51.170;4.884;2022-07-09T14:39:10;4.43;;;1.40;;
29202;SDS011;16245;51.170;4.884;2022-07-09T14:41:35;4.55;;;1.20;;
29202;SDS011;16245;51.170;4.884;2022-07-09T14:44:04;3.47;;;1.70;;
29202;SDS011;16245;51.170;4.884;2022-07-09T14:46:30;5.13;;;1.40;;